Main page
METAR-TAF:

METAR-TAF

Airports :

Kärdla Airport

Kärdla, Estonia

latitude: 58-59N, longitude: 022-49E, elevation: 5 m

Current weather observation

The report was made 7 hours and 59 minutes ago, at 15:50 UTC
Wind 7 kt from the North
Temperature 2°C
Humidity 69%
Pressure 1014 hPa
Visibility 10 km or more
no clouds below 1500 m and no cumulonimbus

METAR: EEKA 101550Z 01007KT CAVOK 02/M03 Q1014

Time: 01:49 (23:49 UTC)

Forecast

The report was made 10 hours and 49 minutes ago, at 13:00 UTC
Forecast valid from 10 at 14 UTC to 10 at 20 UTC
Wind 13 kt from the Northwest
Visibility 10 km or more
Broken clouds at a height of 4000 ft
Temporary
from 10 at 14 UTC to 10 at 17 UTC
Scattered clouds at a height of 1500 ft, Cumulonimbus.
Broken clouds at a height of 3500 ft
Probability 30% :
Temporary
from 10 at 14 UTC to 10 at 17 UTC
Visibility: 3000 m
snow showers

TAF: EEKA 101300Z 1014/1020 32013KT 9999 BKN040 TEMPO 1014/1017 SCT015CB BKN035 PROB30 TEMPO 1014/1017 3000 SHSN

Weather observations and forecasts of more than 4000 airports (METAR and TAF reports).

The available stations are represented by yellow and red dots on the map.

Hover mouse over dot to see the name of the station.

Then click to see weather observations and forecasts.

To change the map : click on the green buttons with a black cross to zoom in, on the green button with a dash to zoom out, or on the green arrows for adjacent maps.


METAR-TAF: